createdAt,value
2018-08-07T00:02:01.544Z,97094.83
2018-08-07T00:04:28.956Z,97096.91
2018-08-07T00:06:56.384Z,97098.55
2018-08-07T00:09:23.827Z,97098.53
2018-08-07T00:11:51.226Z,97096.48
2018-08-07T00:14:18.645Z,97104.26
2018-08-07T00:16:46.104Z,97097.58
2018-08-07T00:19:13.531Z,97095.52
2018-08-07T00:21:40.926Z,97090.64
2018-08-07T00:24:08.372Z,97087.83
2018-08-07T00:26:35.802Z,97088.66
2018-08-07T00:29:03.194Z,97086.55
2018-08-07T00:31:30.629Z,97077.34
2018-08-07T00:33:58.028Z,97082.23
2018-08-07T00:36:25.773Z,97081.37
2018-08-07T00:38:53.215Z,97087.49
2018-08-07T00:41:20.660Z,97093.85
2018-08-07T00:43:48.050Z,97095.42
2018-08-07T00:46:15.502Z,97089.13
2018-08-07T00:48:43.037Z,97092.82
2018-08-07T00:51:10.486Z,97086.81
2018-08-07T00:53:38.031Z,97076.23
2018-08-07T00:56:05.491Z,97075.21
2018-08-07T00:58:32.949Z,97073.21
2018-08-07T01:01:00.400Z,97071.46
2018-08-07T01:03:27.817Z,97070.98
2018-08-07T01:05:55.217Z,97069.30
2018-08-07T01:08:22.721Z,97075.75
2018-08-07T01:10:50.116Z,97083.75
2018-08-07T01:13:17.684Z,97076.58
2018-08-07T01:15:45.104Z,97067.80
2018-08-07T01:18:12.639Z,97069.55
2018-08-07T01:20:40.468Z,97070.57
2018-08-07T01:23:07.963Z,97067.80
2018-08-07T01:25:35.407Z,97070.22
2018-08-07T01:28:02.801Z,97068.70
2018-08-07T01:30:30.237Z,97071.66
2018-08-07T01:32:57.681Z,97068.06
2018-08-07T01:35:25.224Z,97070.48
2018-08-07T01:37:52.688Z,97076.30
2018-08-07T01:40:20.087Z,97081.13
2018-08-07T01:42:47.507Z,97077.78
2018-08-07T01:45:15.100Z,97073.43
2018-08-07T01:47:42.578Z,97071.94
2018-08-07T01:50:10.067Z,97073.66
2018-08-07T01:52:37.504Z,97072.00
2018-08-07T01:55:04.942Z,97073.14
2018-08-07T01:57:32.375Z,97078.08
2018-08-07T01:59:59.848Z,97075.32
2018-08-07T02:02:27.256Z,97074.65
2018-08-07T02:04:54.747Z,97077.91
2018-08-07T02:07:22.391Z,97077.39
2018-08-07T02:09:49.836Z,97067.73
2018-08-07T02:12:17.412Z,97073.48
2018-08-07T02:14:44.805Z,97065.89
2018-08-07T02:17:12.310Z,97060.57
2018-08-07T02:19:39.734Z,97070.06
2018-08-07T02:22:07.237Z,97064.49
2018-08-07T02:24:34.677Z,97066.41
2018-08-07T02:27:02.091Z,97062.81
2018-08-07T02:29:29.541Z,97069.27
2018-08-07T02:31:56.959Z,97068.41
2018-08-07T02:34:24.413Z,97077.19
2018-08-07T02:36:51.833Z,97070.33
2018-08-07T02:39:19.311Z,97067.19
2018-08-07T02:41:46.718Z,97063.59
2018-08-07T02:44:14.175Z,97059.91
2018-08-07T02:49:08.364Z,97061.84
2018-08-07T02:51:36.174Z,97060.58
2018-08-07T02:54:03.651Z,97058.99
2018-08-07T02:56:31.070Z,97053.75
2018-08-07T02:58:58.503Z,97064.73
2018-08-07T03:01:25.982Z,97058.16
2018-08-07T03:03:53.475Z,97055.24
2018-08-07T03:06:20.945Z,97057.34
2018-08-07T03:08:48.391Z,97054.16
2018-08-07T03:11:15.827Z,97055.17
2018-08-07T03:13:43.362Z,97057.08
2018-08-07T03:16:10.805Z,97055.94
2018-08-07T03:18:38.231Z,97050.75
2018-08-07T03:21:05.682Z,97045.80
2018-08-07T03:23:33.148Z,97044.34
2018-08-07T03:26:00.593Z,97046.05
2018-08-07T03:28:28.056Z,97052.81
2018-08-07T03:30:55.511Z,97048.97
2018-08-07T03:33:23.032Z,97059.48
2018-08-07T03:35:50.433Z,97059.05
2018-08-07T03:38:17.888Z,97062.41
2018-08-07T03:40:45.310Z,97069.43
2018-08-07T03:43:12.805Z,97061.76
2018-08-07T03:45:40.291Z,97070.69
2018-08-07T03:48:07.770Z,97073.44
2018-08-07T03:50:35.348Z,97072.11
2018-08-07T03:53:02.784Z,97069.69
2018-08-07T03:55:30.199Z,97074.19
2018-08-07T03:57:57.777Z,97074.20
2018-08-07T04:00:25.208Z,97064.38
2018-08-07T04:02:52.634Z,97062.45
2018-08-07T04:05:20.145Z,97068.49
2018-08-07T04:07:47.738Z,97062.81
2018-08-07T04:10:15.226Z,97063.73
2018-08-07T04:12:42.700Z,97063.89
2018-08-07T04:15:10.189Z,97070.47
2018-08-07T04:17:37.621Z,97071.41
2018-08-07T04:20:05.079Z,97068.14
2018-08-07T04:22:32.565Z,97065.30
2018-08-07T04:25:00.050Z,97066.05
2018-08-07T04:27:27.454Z,97071.23
2018-08-07T04:29:54.854Z,97068.80
2018-08-07T04:32:22.358Z,97072.89
2018-08-07T04:34:49.773Z,97068.30
2018-08-07T04:37:17.278Z,97072.64
2018-08-07T04:39:44.760Z,97075.41
2018-08-07T04:42:12.212Z,97078.66
2018-08-07T04:44:39.677Z,97072.55
2018-08-07T04:47:07.137Z,97074.20
2018-08-07T04:49:34.568Z,97072.98
2018-08-07T04:52:01.975Z,97073.55
2018-08-07T04:54:29.440Z,97072.22
2018-08-07T04:56:56.893Z,97068.55
2018-08-07T04:59:24.383Z,97074.41
2018-08-07T05:01:51.828Z,97068.14
2018-08-07T05:04:19.303Z,97075.94
2018-08-07T05:06:46.775Z,97067.19
2018-08-07T05:09:14.181Z,97065.09
2018-08-07T05:11:41.600Z,97070.56
2018-08-07T05:14:09.127Z,97077.14
2018-08-07T05:16:36.578Z,97076.64
2018-08-07T05:19:04.019Z,97073.97
2018-08-07T05:21:31.449Z,97079.72
2018-08-07T05:23:58.910Z,97072.80
2018-08-07T05:26:26.448Z,97074.61
2018-08-07T05:28:53.900Z,97073.08
2018-08-07T05:31:21.376Z,97072.56
2018-08-07T05:33:48.828Z,97070.24
2018-08-07T05:36:16.344Z,97076.98
2018-08-07T05:38:43.827Z,97073.22
2018-08-07T05:41:11.349Z,97073.82
2018-08-07T05:43:38.780Z,97079.56
2018-08-07T05:46:06.251Z,97079.77
2018-08-07T05:48:33.719Z,97077.62
2018-08-07T05:51:01.528Z,97075.94
2018-08-07T05:53:28.655Z,97082.30
2018-08-07T05:55:56.103Z,97085.12
2018-08-07T05:58:23.559Z,97087.83
2018-08-07T06:00:51.021Z,97085.47
2018-08-07T06:03:18.517Z,97083.98
2018-08-07T06:05:45.955Z,97087.18
2018-08-07T06:08:13.462Z,97087.38
2018-08-07T06:10:40.982Z,97093.81
2018-08-07T06:13:08.402Z,97096.48
2018-08-07T06:15:35.865Z,97096.79
2018-08-07T06:18:03.389Z,97093.73
2018-08-07T06:20:30.824Z,97087.66
2018-08-07T06:22:58.253Z,97086.78
2018-08-07T06:25:25.727Z,97092.34
2018-08-07T06:27:53.136Z,97100.25
2018-08-07T06:30:20.581Z,97102.80
2018-08-07T06:32:47.987Z,97103.38
2018-08-07T06:35:16.204Z,97101.97
2018-08-07T06:37:43.660Z,97103.47
2018-08-07T06:40:11.119Z,97110.21
2018-08-07T06:42:38.545Z,97106.63
2018-08-07T06:45:06.079Z,97111.39
2018-08-07T06:47:33.513Z,97106.37
2018-08-07T06:50:01.114Z,97103.98
2018-08-07T06:52:28.596Z,97095.52
2018-08-07T06:54:56.097Z,97098.95
2018-08-07T06:57:23.654Z,97101.75
2018-08-07T06:59:51.099Z,97099.41
2018-08-07T07:02:18.504Z,97100.81
2018-08-07T07:04:45.944Z,97102.37
2018-08-07T07:07:13.401Z,97096.66
2018-08-07T07:09:40.951Z,97098.24
2018-08-07T07:12:08.354Z,97093.78
2018-08-07T07:14:35.843Z,97100.28
2018-08-07T07:17:03.274Z,97097.94
2018-08-07T07:19:30.751Z,97089.84
2018-08-07T07:21:58.254Z,97094.28
2018-08-07T07:24:25.688Z,97100.03
2018-08-07T07:26:53.155Z,97102.56
2018-08-07T07:29:20.682Z,97097.08
2018-08-07T07:31:48.164Z,97099.17
2018-08-07T07:34:15.753Z,97088.98
2018-08-07T07:36:43.143Z,97094.52
2018-08-07T07:39:10.566Z,97093.85
2018-08-07T07:41:38.833Z,97088.83
2018-08-07T07:44:06.311Z,97090.63
2018-08-07T07:46:33.785Z,97093.23
2018-08-07T07:49:01.340Z,97094.41
2018-08-07T07:51:28.844Z,97093.02
2018-08-07T07:53:56.344Z,97091.56
2018-08-07T07:56:23.776Z,97090.71
2018-08-07T07:58:51.260Z,97095.86
2018-08-07T08:01:18.800Z,97091.66
2018-08-07T08:03:46.347Z,97086.50
2018-08-07T08:06:13.791Z,97087.70
2018-08-07T08:08:41.233Z,97095.41
2018-08-07T08:11:08.776Z,97088.55
2018-08-07T08:13:36.170Z,97084.25
2018-08-07T08:16:03.718Z,97089.14
2018-08-07T08:18:31.214Z,97086.31
2018-08-07T08:20:58.643Z,97088.09
2018-08-07T08:23:26.163Z,97091.03
2018-08-07T08:25:53.632Z,97098.02
2018-08-07T08:28:21.091Z,97091.80
2018-08-07T08:30:48.556Z,97090.72
2018-08-07T08:33:15.983Z,97085.20
2018-08-07T08:35:43.475Z,97083.92
2018-08-07T08:38:10.931Z,97080.86
2018-08-07T08:40:38.459Z,97094.96
2018-08-07T08:43:05.968Z,97088.74
2018-08-07T08:45:33.556Z,97090.64
2018-08-07T08:48:01.106Z,97088.05
2018-08-07T08:50:28.544Z,97085.09
2018-08-07T08:52:55.998Z,97088.98
2018-08-07T08:55:23.572Z,97077.66
2018-08-07T08:57:51.027Z,97076.36
2018-08-07T09:00:18.551Z,97073.41
2018-08-07T09:02:46.249Z,97065.12
2018-08-07T09:05:13.861Z,97068.23
2018-08-07T09:07:41.413Z,97071.84
2018-08-07T09:10:08.822Z,97066.78
2018-08-07T09:12:36.283Z,97057.92
2018-08-07T09:15:03.699Z,97058.05
2018-08-07T09:17:31.106Z,97066.60
2018-08-07T09:19:58.549Z,97057.75
2018-08-07T09:22:26.067Z,97054.19
2018-08-07T09:24:53.527Z,97052.41
2018-08-07T09:27:21.027Z,97044.07
2018-08-07T09:29:48.514Z,97043.07
2018-08-07T09:32:15.939Z,97040.77
2018-08-07T09:34:42.942Z,97037.85
2018-08-07T09:37:10.763Z,97037.52
2018-08-07T09:39:38.335Z,97031.80
2018-08-07T09:42:05.691Z,97031.77
2018-08-07T09:44:33.180Z,97036.14
2018-08-07T09:47:00.787Z,97031.03
2018-08-07T09:49:28.279Z,97040.42
2018-08-07T09:51:55.229Z,97032.36
2018-08-07T09:54:22.206Z,97029.23
2018-08-07T09:56:49.265Z,97032.86
2018-08-07T09:59:16.277Z,97025.87
2018-08-07T10:01:43.743Z,97023.72
2018-08-07T10:04:10.793Z,97022.43
2018-08-07T10:06:37.826Z,97020.90
2018-08-07T10:09:04.825Z,97022.84
2018-08-07T10:11:32.073Z,97025.38
2018-08-07T10:13:59.130Z,97022.20
2018-08-07T10:16:26.066Z,97017.11
2018-08-07T10:18:53.079Z,97013.66
2018-08-07T10:21:20.052Z,97008.09
2018-08-07T10:23:47.100Z,97005.98
2018-08-07T10:26:14.109Z,97001.83
2018-08-07T10:28:41.527Z,97001.34
2018-08-07T10:31:08.940Z,97001.41
2018-08-07T10:33:36.349Z,96992.73
2018-08-07T10:36:03.778Z,96993.50
2018-08-07T10:38:31.223Z,96980.64
2018-08-07T10:40:58.997Z,96988.36
2018-08-07T10:43:26.507Z,96978.09
2018-08-07T10:45:53.920Z,96977.33
2018-08-07T10:48:20.941Z,96971.86
2018-08-07T10:50:48.376Z,96975.66
2018-08-07T10:53:15.315Z,96966.02
2018-08-07T10:55:42.972Z,96965.94
2018-08-07T10:58:10.038Z,96961.30
2018-08-07T11:00:37.004Z,96961.47
2018-08-07T11:03:04.036Z,96952.50
2018-08-07T11:05:31.015Z,96950.55
2018-08-07T11:07:57.995Z,96943.66
2018-08-07T11:10:26.193Z,96941.64
2018-08-07T11:12:53.219Z,96939.80
2018-08-07T11:15:20.486Z,96931.50
2018-08-07T11:17:47.480Z,96926.20
2018-08-07T11:20:14.479Z,96925.94
2018-08-07T11:22:41.582Z,96928.23
2018-08-07T11:25:08.537Z,96926.61
2018-08-07T11:27:35.559Z,96907.76
2018-08-07T11:30:02.724Z,96909.66
2018-08-07T11:32:29.819Z,96898.48
2018-08-07T11:34:57.287Z,96900.90
2018-08-07T11:37:24.721Z,96894.11
2018-08-07T11:39:52.228Z,96895.42
2018-08-07T11:42:19.717Z,96889.98
2018-08-07T11:44:47.245Z,96880.19
2018-08-07T11:47:14.775Z,96873.54
2018-08-07T11:49:42.766Z,96867.22
2018-08-07T11:52:10.373Z,96868.20
2018-08-07T11:54:37.829Z,96861.03
2018-08-07T11:57:05.447Z,96853.58
2018-08-07T11:59:32.905Z,96845.34
2018-08-07T12:02:00.474Z,96847.75
2018-08-07T12:04:28.859Z,96837.00
2018-08-07T12:06:56.356Z,96831.31
2018-08-07T12:09:23.883Z,96837.58
2018-08-07T12:11:51.379Z,96832.05
2018-08-07T12:14:19.010Z,96837.31
2018-08-07T12:16:46.622Z,96838.73
2018-08-07T12:19:14.060Z,96834.12
2018-08-07T12:21:41.603Z,96830.66
2018-08-07T12:24:09.044Z,96824.09
2018-08-07T12:26:36.475Z,96815.59
2018-08-07T12:29:04.004Z,96815.45
2018-08-07T12:31:31.447Z,96814.00
2018-08-07T12:33:58.968Z,96810.51
2018-08-07T12:36:26.495Z,96808.28
2018-08-07T12:38:53.983Z,96803.30
2018-08-07T12:41:21.568Z,96810.45
2018-08-07T12:43:49.046Z,96797.03
2018-08-07T12:46:16.560Z,96805.47
2018-08-07T12:48:44.043Z,96799.30
2018-08-07T12:51:11.530Z,96796.32
2018-08-07T12:53:39.054Z,96792.46
2018-08-07T12:56:06.597Z,96798.34
2018-08-07T12:58:34.048Z,96786.27
2018-08-07T13:01:01.512Z,96777.06
2018-08-07T13:03:29.109Z,96775.73
2018-08-07T13:05:56.556Z,96775.67
2018-08-07T13:08:23.995Z,96772.56
2018-08-07T13:10:51.617Z,96769.78
2018-08-07T13:13:19.199Z,96758.94
2018-08-07T13:15:46.778Z,96763.16
2018-08-07T13:18:14.321Z,96762.98
2018-08-07T13:20:41.851Z,96756.57
2018-08-07T13:23:09.291Z,96753.48
2018-08-07T13:25:36.736Z,96746.28
2018-08-07T13:28:04.216Z,96741.65
2018-08-07T13:30:31.649Z,96740.52
2018-08-07T13:32:59.107Z,96740.75
2018-08-07T13:35:26.672Z,96734.11
2018-08-07T13:37:54.075Z,96733.66
2018-08-07T13:40:21.675Z,96734.31
2018-08-07T13:42:49.170Z,96724.34
2018-08-07T13:45:16.679Z,96717.84
2018-08-07T13:47:44.244Z,96723.47
2018-08-07T13:50:12.689Z,96716.66
2018-08-07T13:52:40.141Z,96716.75
2018-08-07T13:55:07.637Z,96716.23
2018-08-07T14:00:28.080Z,96707.38
2018-08-07T14:02:55.590Z,96695.09
2018-08-07T14:05:23.084Z,96711.88
2018-08-07T14:07:50.069Z,96698.22
2018-08-07T14:10:17.607Z,96698.09
2018-08-07T14:12:44.679Z,96690.86
2018-08-07T14:15:11.694Z,96692.24
2018-08-07T14:17:38.712Z,96689.78
2018-08-07T14:20:05.712Z,96681.17
2018-08-07T14:22:32.689Z,96674.20
2018-08-07T14:24:59.671Z,96668.86
2018-08-07T14:27:26.698Z,96664.83
2018-08-07T14:29:53.752Z,96669.77
2018-08-07T14:32:20.883Z,96659.30
2018-08-07T14:34:48.353Z,96660.40
2018-08-07T14:37:15.932Z,96658.20
2018-08-07T14:39:43.422Z,96666.95
2018-08-07T14:42:10.948Z,96652.88
2018-08-07T14:44:38.365Z,96645.94
2018-08-07T14:47:05.836Z,96647.03
2018-08-07T14:49:33.306Z,96653.44
2018-08-07T14:52:00.929Z,96654.10
2018-08-07T14:54:28.437Z,96647.98
2018-08-07T14:56:55.852Z,96641.55
2018-08-07T14:59:23.307Z,96645.67
2018-08-07T15:01:50.777Z,96648.09
2018-08-07T15:04:18.840Z,96643.59
2018-08-07T15:06:46.252Z,96641.54
2018-08-07T15:09:13.719Z,96639.64
2018-08-07T15:11:41.207Z,96634.88
2018-08-07T15:14:08.713Z,96635.00
2018-08-07T15:16:36.287Z,96636.66
2018-08-07T15:19:03.372Z,96636.78
2018-08-07T15:21:30.343Z,96635.95
2018-08-07T15:23:57.315Z,96633.36
2018-08-07T15:26:24.345Z,96633.09
2018-08-07T15:28:51.289Z,96633.50
2018-08-07T15:31:18.273Z,96634.31
2018-08-07T15:33:45.273Z,96624.77
2018-08-07T15:36:12.295Z,96639.24
2018-08-07T15:38:39.401Z,96628.19
2018-08-07T15:41:06.519Z,96620.80
2018-08-07T15:43:33.563Z,96624.77
2018-08-07T15:46:00.504Z,96620.81
2018-08-07T15:48:27.940Z,96619.28
2018-08-07T15:50:54.981Z,96626.67
2018-08-07T15:53:22.418Z,96618.31
2018-08-07T15:55:49.910Z,96616.81
2018-08-07T15:58:17.813Z,96610.39
2018-08-07T16:00:44.848Z,96606.97
2018-08-07T16:03:11.866Z,96606.67
2018-08-07T16:05:38.814Z,96610.77
2018-08-07T16:08:05.896Z,96604.70
2018-08-07T16:10:33.303Z,96599.34
2018-08-07T16:13:00.764Z,96597.83
2018-08-07T16:15:28.205Z,96610.26
2018-08-07T16:17:55.751Z,96601.41
2018-08-07T16:20:23.276Z,96597.44
2018-08-07T16:22:50.776Z,96602.86
2018-08-07T16:25:18.255Z,96605.84
2018-08-07T16:27:45.363Z,96600.64
2018-08-07T16:30:12.385Z,96606.53
2018-08-07T16:32:39.285Z,96611.13
2018-08-07T16:35:06.261Z,96600.71
2018-08-07T16:40:29.258Z,96609.00
2018-08-07T16:42:56.748Z,96612.70
2018-08-07T16:45:24.193Z,96612.58
2018-08-07T16:47:51.780Z,96614.16
2018-08-07T16:50:19.362Z,96611.11
2018-08-07T16:52:46.934Z,96610.99
2018-08-07T16:55:14.399Z,96601.39
2018-08-07T16:57:41.914Z,96611.98
2018-08-07T17:00:09.491Z,96599.61
2018-08-07T17:02:36.481Z,96602.92
2018-08-07T17:05:04.005Z,96599.97
2018-08-07T17:07:31.719Z,96597.50
2018-08-07T17:09:59.241Z,96596.95
2018-08-07T17:12:26.664Z,96595.58
2018-08-07T17:14:54.149Z,96599.24
2018-08-07T17:17:22.544Z,96590.66
2018-08-07T17:19:49.570Z,96592.74
2018-08-07T17:22:16.645Z,96589.62
2018-08-07T17:24:43.584Z,96588.55
2018-08-07T17:27:10.674Z,96593.66
2018-08-07T17:29:38.169Z,96585.89
2018-08-07T17:32:05.665Z,96580.63
2018-08-07T17:34:32.667Z,96579.00
2018-08-07T17:36:59.657Z,96588.73
2018-08-07T17:39:26.645Z,96578.26
2018-08-07T17:41:54.059Z,96582.69
2018-08-07T17:44:21.797Z,96582.61
2018-08-07T17:46:49.334Z,96580.80
2018-08-07T17:49:16.816Z,96579.86
2018-08-07T17:51:44.265Z,96575.81
2018-08-07T17:54:11.856Z,96582.66
2018-08-07T17:56:38.891Z,96580.35
2018-08-07T17:59:05.938Z,96576.23
2018-08-07T18:01:33.411Z,96580.05
2018-08-07T18:04:00.928Z,96585.08
2018-08-07T18:06:28.461Z,96590.72
2018-08-07T18:08:55.911Z,96593.55
2018-08-07T18:11:23.335Z,96598.29
2018-08-07T18:13:50.859Z,96588.59
2018-08-07T18:16:18.330Z,96580.59
2018-08-07T18:18:45.857Z,96586.08
2018-08-07T18:21:13.256Z,96582.69
2018-08-07T18:23:40.786Z,96585.27
2018-08-07T18:26:08.270Z,96584.36
2018-08-07T18:28:35.990Z,96594.27
2018-08-07T18:31:03.069Z,96593.39
2018-08-07T18:33:30.736Z,96596.28
2018-08-07T18:35:58.227Z,96593.28
2018-08-07T18:38:25.663Z,96607.06
2018-08-07T18:40:53.117Z,96605.73
2018-08-07T18:43:20.628Z,96601.56
2018-08-07T18:45:48.084Z,96610.20
2018-08-07T18:48:15.548Z,96622.94
2018-08-07T18:50:43.022Z,96621.84
2018-08-07T18:53:10.492Z,96635.34
2018-08-07T18:55:38.235Z,96646.27
2018-08-07T18:58:05.724Z,96642.97
2018-08-07T19:00:33.159Z,96648.27
2018-08-07T19:03:00.640Z,96656.91
2018-08-07T19:05:28.116Z,96655.23
2018-08-07T19:07:55.637Z,96662.37
2018-08-07T19:10:23.135Z,96662.81
2018-08-07T19:12:50.596Z,96661.78
2018-08-07T19:15:18.103Z,96672.80
2018-08-07T19:17:45.532Z,96670.83
2018-08-07T19:20:13.041Z,96680.56
2018-08-07T19:22:40.484Z,96693.11
2018-08-07T19:25:08.037Z,96697.89
2018-08-07T19:27:35.534Z,96703.97
2018-08-07T19:30:02.978Z,96704.68
2018-08-07T19:32:30.442Z,96706.89
2018-08-07T19:34:57.902Z,96712.42
2018-08-07T19:37:25.403Z,96720.04
2018-08-07T19:39:52.896Z,96717.69
2018-08-07T19:42:20.445Z,96722.58
2018-08-07T19:44:47.967Z,96730.28
2018-08-07T19:47:15.403Z,96738.29
2018-08-07T19:49:42.941Z,96732.45
2018-08-07T19:52:10.967Z,96740.32
2018-08-07T19:54:38.509Z,96732.91
2018-08-07T19:57:06.171Z,96734.77
2018-08-07T19:59:33.617Z,96739.71
2018-08-07T20:02:01.343Z,96740.66
2018-08-07T20:04:28.847Z,96737.04
2018-08-07T20:06:56.361Z,96739.27
2018-08-07T20:09:23.808Z,96751.09
2018-08-07T20:11:51.256Z,96744.69
2018-08-07T20:14:19.097Z,96747.32
2018-08-07T20:16:46.843Z,96756.28
2018-08-07T20:19:14.297Z,96756.56
2018-08-07T20:21:41.768Z,96748.73
2018-08-07T20:24:09.231Z,96747.66
2018-08-07T20:26:36.698Z,96754.73
2018-08-07T20:29:04.138Z,96748.19
2018-08-07T20:31:31.559Z,96744.88
2018-08-07T20:33:59.101Z,96751.38
2018-08-07T20:36:26.646Z,96746.37
2018-08-07T20:38:54.210Z,96746.37
2018-08-07T20:41:21.824Z,96737.53
2018-08-07T20:43:49.309Z,96735.63
2018-08-07T20:46:16.774Z,96742.84
2018-08-07T20:48:44.292Z,96739.83
2018-08-07T20:51:11.860Z,96747.44
2018-08-07T20:53:39.298Z,96749.41
2018-08-07T20:56:06.707Z,96754.87
2018-08-07T20:58:34.258Z,96748.88
2018-08-07T21:01:01.708Z,96741.99
2018-08-07T21:03:29.194Z,96747.80
2018-08-07T21:05:56.802Z,96745.03
2018-08-07T21:08:24.314Z,96750.34
2018-08-07T21:10:51.817Z,96741.91
2018-08-07T21:13:19.289Z,96744.88
2018-08-07T21:15:46.740Z,96746.91
2018-08-07T21:18:14.247Z,96750.52
2018-08-07T21:20:41.675Z,96761.09
2018-08-07T21:23:09.201Z,96766.17
2018-08-07T21:25:36.712Z,96776.12
2018-08-07T21:28:04.135Z,96775.11
2018-08-07T21:30:31.587Z,96784.73
2018-08-07T21:32:59.139Z,96780.73
2018-08-07T21:35:26.664Z,96793.73
2018-08-07T21:37:55.231Z,96801.22
2018-08-07T21:40:22.740Z,96810.05
2018-08-07T21:42:51.008Z,96818.61
2018-08-07T21:45:18.471Z,96824.53
2018-08-07T21:47:45.923Z,96831.20
2018-08-07T21:50:13.384Z,96829.77
2018-08-07T21:52:40.931Z,96826.33
2018-08-07T21:55:08.446Z,96824.74
2018-08-07T21:57:35.923Z,96820.16
2018-08-07T22:00:03.528Z,96818.89
2018-08-07T22:02:31.019Z,96818.73
2018-08-07T22:04:58.504Z,96818.44
2018-08-07T22:07:25.981Z,96819.70
2018-08-07T22:09:53.433Z,96823.59
2018-08-07T22:12:20.981Z,96818.12
2018-08-07T22:17:10.733Z,96817.09
2018-08-07T22:19:38.238Z,96819.17
2018-08-07T22:22:06.709Z,96824.66
2018-08-07T22:24:34.151Z,96817.75
2018-08-07T22:27:01.636Z,96811.98
2018-08-07T22:29:29.191Z,96815.53
2018-08-07T22:31:56.641Z,96819.38
2018-08-07T22:34:24.077Z,96818.59
2018-08-07T22:36:51.615Z,96812.38
2018-08-07T22:39:19.034Z,96814.98
2018-08-07T22:41:46.500Z,96810.56
2018-08-07T22:44:13.469Z,96817.63
2018-08-07T22:46:41.029Z,96815.05
2018-08-07T22:49:08.470Z,96816.08
2018-08-07T22:51:35.882Z,96825.39
2018-08-07T22:54:03.422Z,96828.59
2018-08-07T22:56:31.115Z,96821.61
2018-08-07T22:58:58.106Z,96818.45
2018-08-07T23:01:25.593Z,96826.16
2018-08-07T23:03:53.173Z,96824.63
2018-08-07T23:06:20.586Z,96823.16
2018-08-07T23:08:47.998Z,96818.39
2018-08-07T23:11:15.052Z,96818.94
2018-08-07T23:13:42.525Z,96823.23
2018-08-07T23:16:10.004Z,96821.36
2018-08-07T23:18:37.452Z,96815.14
2018-08-07T23:21:04.943Z,96813.59
2018-08-07T23:23:32.432Z,96816.50
2018-08-07T23:25:59.897Z,96809.20
2018-08-07T23:28:27.327Z,96799.72
2018-08-07T23:30:54.862Z,96802.73
2018-08-07T23:33:22.361Z,96803.89
2018-08-07T23:35:50.848Z,96807.95
2018-08-07T23:38:18.350Z,96799.89
2018-08-07T23:40:45.797Z,96804.88
2018-08-07T23:43:14.268Z,96804.24
2018-08-07T23:45:41.776Z,96814.93
2018-08-07T23:48:09.321Z,96818.02
2018-08-07T23:50:36.770Z,96827.45
2018-08-07T23:53:04.226Z,96821.66
2018-08-07T23:55:31.684Z,96821.97
2018-08-07T23:57:59.137Z,96820.54
